Time;durP1;ratioP1;P1;durP2;ratioP2;P2;SDS_P1;SDS_P2;PMS_P1;PMS_P2;Temp;Humidity;BMP_temperature;BMP_pressure;BME280_temperature;BME280_humidity;BME280_pressure;Samples;Min_cycle;Max_cycle;Signal;HPM_P1;HPM_P2
2023/07/02 00:01:41;;;;;;;20.33;7.40;;;15.30;75.70;;;;;;4991025;28;20384;-70
2023/07/02 00:04:08;;;;;;;26.97;7.70;;;15.30;76.20;;;;;;5004632;28;20120;-70
2023/07/02 00:06:40;;;;;;;28.17;8.43;;;15.20;76.20;;;;;;5006466;28;20383;-70
2023/07/02 00:09:06;;;;;;;25.03;7.80;;;15.20;76.40;;;;;;5002479;28;20812;-70
2023/07/02 00:11:33;;;;;;;23.20;8.03;;;15.10;76.70;;;;;;5005320;28;20783;-70
2023/07/02 00:13:58;;;;;;;24.50;8.57;;;15.10;77.10;;;;;;4993054;28;20776;-70
2023/07/02 00:16:24;;;;;;;26.80;8.17;;;15.10;77.00;;;;;;4991044;28;20284;-70
2023/07/02 00:18:52;;;;;;;26.80;8.53;;;15.00;77.10;;;;;;5002541;28;20038;-70
2023/07/02 00:21:21;;;;;;;26.57;8.83;;;15.00;77.20;;;;;;5007560;28;20053;-70
2023/07/02 00:23:48;;;;;;;24.20;8.70;;;15.00;76.80;;;;;;5007694;28;20324;-70
2023/07/02 00:26:14;;;;;;;23.00;8.23;;;15.00;76.80;;;;;;4989867;28;20299;-70
2023/07/02 00:28:39;;;;;;;19.93;7.40;;;15.00;76.80;;;;;;5003967;28;20638;-70
2023/07/02 00:31:05;;;;;;;21.90;7.93;;;14.90;76.80;;;;;;5006623;28;20416;-69
2023/07/02 00:33:32;;;;;;;23.03;8.60;;;14.80;76.90;;;;;;5007607;28;20056;-69
2023/07/02 00:36:00;;;;;;;33.40;8.07;;;14.80;77.10;;;;;;5007150;28;20049;-69
2023/07/02 00:38:26;;;;;;;24.30;8.37;;;14.70;77.30;;;;;;4999710;28;20664;-69
2023/07/02 00:40:52;;;;;;;26.70;8.77;;;14.60;77.60;;;;;;4990660;28;20545;-70
2023/07/02 00:43:17;;;;;;;23.63;8.27;;;14.50;78.00;;;;;;5006808;28;20521;-70
2023/07/02 00:45:45;;;;;;;29.33;9.53;;;14.40;78.30;;;;;;5007105;28;20073;-70
2023/07/02 00:48:11;;;;;;;27.90;9.53;;;14.30;78.60;;;;;;4977841;28;20402;-70
2023/07/02 00:50:38;;;;;;;23.63;8.33;;;14.20;79.00;;;;;;4990128;28;20282;-70
2023/07/02 00:53:04;;;;;;;24.37;8.97;;;14.10;79.40;;;;;;4979036;28;20639;-70
2023/07/02 00:55:30;;;;;;;24.67;8.47;;;14.10;79.70;;;;;;5007164;28;20521;-70
2023/07/02 00:57:56;;;;;;;29.40;9.47;;;14.10;79.90;;;;;;5007479;28;20398;-70
2023/07/02 01:00:22;;;;;;;24.03;7.97;;;14.00;79.90;;;;;;5007186;28;20357;-70
2023/07/02 01:02:59;;;;;;;27.37;8.03;;;14.00;80.20;;;;;;5002579;28;20304;-70
2023/07/02 01:05:35;;;;;;;33.43;9.70;;;13.90;80.40;;;;;;5004445;28;20382;-70
2023/07/02 01:08:05;;;;;;;28.43;9.37;;;13.90;80.60;;;;;;4991643;28;20372;-70
2023/07/02 01:10:32;;;;;;;25.63;8.83;;;13.80;80.90;;;;;;5006009;28;20287;-70
2023/07/02 01:13:11;;;;;;;27.80;8.77;;;13.80;81.10;;;;;;4996941;28;20867;-70
2023/07/02 01:15:37;;;;;;;27.80;9.20;;;13.80;81.40;;;;;;5006803;28;20281;-70
2023/07/02 01:18:05;;;;;;;22.80;9.13;;;13.70;81.30;;;;;;5006873;28;20292;-69
2023/07/02 01:20:31;;;;;;;25.27;9.03;;;13.70;81.70;;;;;;5004132;28;20819;-69
2023/07/02 01:23:02;;;;;;;26.27;9.10;;;13.60;82.10;;;;;;5005131;28;20870;-69
2023/07/02 01:25:28;;;;;;;27.20;9.03;;;13.60;82.10;;;;;;5003723;28;20292;-69
2023/07/02 01:27:55;;;;;;;23.77;9.27;;;13.60;82.60;;;;;;5006564;28;20354;-69
2023/07/02 01:30:21;;;;;;;21.77;8.50;;;13.60;82.60;;;;;;4991136;28;20436;-69
2023/07/02 01:32:47;;;;;;;22.67;8.67;;;13.50;83.00;;;;;;5002762;28;20293;-70
2023/07/02 01:35:12;;;;;;;26.53;9.37;;;13.50;83.20;;;;;;5005487;28;20038;-69
2023/07/02 01:37:38;;;;;;;23.97;9.10;;;13.40;83.50;;;;;;5007717;28;20033;-69
2023/07/02 01:40:08;;;;;;;24.03;8.27;;;13.40;83.60;;;;;;5004461;28;20057;-69
2023/07/02 01:42:34;;;;;;;22.80;8.43;;;13.40;83.90;;;;;;4989748;28;20038;-69
2023/07/02 01:45:00;;;;;;;27.90;8.30;;;13.40;84.20;;;;;;5005685;28;20614;-69
2023/07/02 01:47:26;;;;;;;27.33;8.47;;;13.40;84.30;;;;;;4989131;28;20289;-69
2023/07/02 01:49:51;;;;;;;26.87;8.73;;;13.40;84.50;;;;;;4996698;28;20030;-69
2023/07/02 01:52:17;;;;;;;28.33;8.80;;;13.40;84.70;;;;;;5002340;28;20049;-69
2023/07/02 01:54:44;;;;;;;27.50;8.67;;;13.40;84.60;;;;;;4988589;28;20364;-69
2023/07/02 01:57:09;;;;;;;26.17;8.57;;;13.40;84.80;;;;;;4990349;28;20050;-69
2023/07/02 01:59:35;;;;;;;29.93;8.77;;;13.40;85.20;;;;;;5006431;28;20295;-69
2023/07/02 02:02:01;;;;;;;24.50;9.00;;;13.40;85.20;;;;;;4989332;28;20116;-69
2023/07/02 02:04:27;;;;;;;25.70;9.33;;;13.40;85.40;;;;;;4989395;28;20494;-69
2023/07/02 02:06:53;;;;;;;27.47;8.87;;;13.40;85.20;;;;;;4999512;28;20281;-69
2023/07/02 02:09:19;;;;;;;25.40;8.90;;;13.30;85.60;;;;;;5005403;28;20042;-69
2023/07/02 02:11:48;;;;;;;25.33;9.37;;;13.30;86.10;;;;;;5008089;28;20045;-69
2023/07/02 02:14:13;;;;;;;28.40;9.37;;;13.30;86.10;;;;;;5007505;28;20501;-69
2023/07/02 02:16:39;;;;;;;29.87;8.83;;;13.30;86.10;;;;;;5005826;28;20304;-69
2023/07/02 02:19:05;;;;;;;22.60;8.13;;;13.30;86.30;;;;;;5007116;28;20399;-69
2023/07/02 02:21:31;;;;;;;26.70;7.63;;;13.30;86.30;;;;;;5004808;28;20072;-69
2023/07/02 02:23:57;;;;;;;25.90;8.10;;;13.30;86.20;;;;;;5007574;28;20136;-69
2023/07/02 02:26:25;;;;;;;25.60;8.17;;;13.40;86.00;;;;;;5007788;28;20303;-69
2023/07/02 02:28:51;;;;;;;26.50;8.47;;;13.40;86.00;;;;;;5007638;28;20774;-69
2023/07/02 02:31:17;;;;;;;30.20;9.00;;;13.40;85.80;;;;;;5004668;28;20284;-69
2023/07/02 02:33:43;;;;;;;22.30;8.70;;;13.40;85.80;;;;;;4987341;28;20708;-69
2023/07/02 02:36:09;;;;;;;26.03;9.27;;;13.40;86.30;;;;;;4989045;28;20657;-70
2023/07/02 02:38:37;;;;;;;29.13;8.43;;;13.30;86.10;;;;;;4993568;28;20277;-69
2023/07/02 02:41:02;;;;;;;26.10;9.00;;;13.30;86.40;;;;;;4991239;28;20041;-69
2023/07/02 02:43:28;;;;;;;32.10;8.93;;;13.30;86.70;;;;;;5007594;28;20827;-69
2023/07/02 02:45:54;;;;;;;23.23;8.40;;;13.30;87.20;;;;;;5005346;28;20061;-69
2023/07/02 02:48:22;;;;;;;25.87;9.20;;;13.40;87.10;;;;;;4983221;28;20445;-69
2023/07/02 02:50:47;;;;;;;26.73;8.30;;;13.40;86.80;;;;;;5007567;28;20112;-69
2023/07/02 02:53:13;;;;;;;27.03;8.37;;;13.40;86.80;;;;;;5007556;28;20289;-69
2023/07/02 02:55:39;;;;;;;22.23;7.97;;;13.50;86.50;;;;;;5007330;28;20045;-69
2023/07/02 02:58:05;;;;;;;22.30;8.37;;;13.60;86.00;;;;;;5006800;28;20041;-69
2023/07/02 03:00:30;;;;;;;25.73;7.63;;;13.60;85.60;;;;;;5010487;28;20049;-69
2023/07/02 03:02:56;;;;;;;29.23;8.40;;;13.70;84.80;;;;;;4995097;28;20056;-69
2023/07/02 03:05:26;;;;;;;20.67;7.57;;;13.70;84.20;;;;;;5009555;28;20544;-70
2023/07/02 03:07:51;;;;;;;21.50;7.97;;;13.80;84.00;;;;;;4993292;28;20073;-69
2023/07/02 03:10:17;;;;;;;25.80;8.23;;;13.80;83.40;;;;;;5010519;28;20307;-70
2023/07/02 03:12:43;;;;;;;25.37;8.17;;;13.90;82.80;;;;;;5008419;28;20454;-70
2023/07/02 03:15:09;;;;;;;23.47;8.53;;;13.90;82.70;;;;;;4997554;28;20085;-70
2023/07/02 03:17:35;;;;;;;27.50;7.63;;;13.90;82.90;;;;;;4994875;28;20068;-69
2023/07/02 03:20:03;;;;;;;27.83;8.43;;;13.90;82.60;;;;;;5010678;28;20308;-69
2023/07/02 03:22:29;;;;;;;23.27;8.13;;;14.00;82.70;;;;;;5000566;28;20293;-69
2023/07/02 03:24:55;;;;;;;24.17;8.40;;;14.00;82.80;;;;;;4989214;28;20339;-69
2023/07/02 03:27:21;;;;;;;20.83;7.77;;;14.10;82.30;;;;;;4994192;28;20092;-69
2023/07/02 03:29:46;;;;;;;22.03;8.07;;;14.10;82.30;;;;;;4994923;28;20572;-69
2023/07/02 03:32:12;;;;;;;29.53;8.67;;;14.20;82.10;;;;;;4994363;28;20092;-69
2023/07/02 03:34:38;;;;;;;23.40;8.17;;;14.20;81.80;;;;;;4983697;28;20498;-69
2023/07/02 03:37:04;;;;;;;27.50;7.87;;;14.20;82.00;;;;;;4986144;28;20117;-70
2023/07/02 03:39:30;;;;;;;26.17;8.07;;;14.20;82.00;;;;;;4991626;28;20345;-70
2023/07/02 03:41:55;;;;;;;26.87;8.63;;;14.20;81.90;;;;;;5007980;28;20792;-69
2023/07/02 03:44:21;;;;;;;23.40;7.70;;;14.30;81.50;;;;;;5008435;28;20428;-70
2023/07/02 03:46:47;;;;;;;23.03;7.27;;;14.30;81.30;;;;;;5008658;28;20052;-70
2023/07/02 03:49:13;;;;;;;21.50;7.97;;;14.30;81.20;;;;;;4991702;28;20403;-69
2023/07/02 03:51:38;;;;;;;19.73;7.00;;;14.20;80.90;;;;;;5007893;28;20138;-69
2023/07/02 03:54:04;;;;;;;25.50;7.90;;;14.20;80.90;;;;;;4985410;28;20042;-70
2023/07/02 03:56:30;;;;;;;23.47;7.33;;;14.20;81.10;;;;;;4992403;28;20478;-70
2023/07/02 03:58:56;;;;;;;20.70;7.23;;;14.10;81.20;;;;;;5003521;28;20447;-70
2023/07/02 04:01:21;;;;;;;29.43;7.53;;;14.10;81.40;;;;;;5010501;28;20125;-69
2023/07/02 04:03:49;;;;;;;21.67;7.07;;;14.00;81.40;;;;;;5007302;28;20041;-70
2023/07/02 04:06:15;;;;;;;21.00;6.90;;;14.00;80.70;;;;;;5009097;28;20519;-70
2023/07/02 04:08:41;;;;;;;17.03;5.77;;;14.10;79.40;;;;;;5009570;28;20780;-69
2023/07/02 04:11:07;;;;;;;16.70;6.13;;;14.10;78.80;;;;;;5008666;28;20368;-69
2023/07/02 04:13:32;;;;;;;14.87;5.90;;;14.10;79.00;;;;;;5006882;28;20100;-70
2023/07/02 04:15:58;;;;;;;19.40;6.23;;;14.20;77.70;;;;;;5006435;28;20041;-69
2023/07/02 04:18:24;;;;;;;18.83;5.57;;;14.30;76.80;;;;;;5006019;28;20485;-69
2023/07/02 04:20:49;;;;;;;15.93;6.23;;;14.30;76.90;;;;;;4989070;28;20091;-70
2023/07/02 04:23:16;;;;;;;15.77;5.33;;;14.40;76.20;;;;;;4989562;28;20053;-69
2023/07/02 04:25:42;;;;;;;15.50;5.47;;;14.40;75.50;;;;;;4988884;28;20251;-69
2023/07/02 04:28:07;;;;;;;18.80;5.63;;;14.50;75.70;;;;;;4990915;28;20867;-69
2023/07/02 04:30:34;;;;;;;15.53;5.33;;;14.50;75.70;;;;;;5007228;28;20041;-69
2023/07/02 04:33:00;;;;;;;20.23;6.13;;;14.40;76.10;;;;;;5007293;28;20054;-69
2023/07/02 04:35:25;;;;;;;15.40;5.33;;;14.40;76.30;;;;;;5003709;28;20336;-69
2023/07/02 04:37:51;;;;;;;17.00;6.37;;;14.40;76.50;;;;;;5007290;28;20337;-69
2023/07/02 04:40:17;;;;;;;19.20;6.00;;;14.60;77.20;;;;;;5007388;28;20045;-69
2023/07/02 04:42:46;;;;;;;17.93;6.80;;;14.90;76.60;;;;;;5007210;28;20052;-69
2023/07/02 04:45:14;;;;;;;25.30;6.07;;;15.10;76.20;;;;;;4998282;28;20069;-70
2023/07/02 04:47:42;;;;;;;17.90;6.03;;;15.10;75.80;;;;;;5005589;28;20328;-70
2023/07/02 04:50:07;;;;;;;20.40;6.37;;;15.00;75.40;;;;;;5007609;28;20776;-69
2023/07/02 04:52:33;;;;;;;18.87;5.70;;;14.80;74.50;;;;;;4991083;28;20338;-69
2023/07/02 04:54:59;;;;;;;17.07;6.03;;;14.80;74.80;;;;;;5007705;28;20049;-70
2023/07/02 04:57:24;;;;;;;17.87;5.93;;;15.10;74.20;;;;;;5004429;28;20050;-70
2023/07/02 04:59:50;;;;;;;21.03;6.30;;;15.90;71.90;;;;;;4986971;28;20033;-70
2023/07/02 05:02:16;;;;;;;14.30;5.20;;;16.80;69.70;;;;;;5006302;28;20088;-70
2023/07/02 05:04:41;;;;;;;12.40;5.70;;;17.40;66.20;;;;;;5006390;28;20192;-70
2023/07/02 05:07:07;;;;;;;13.90;5.60;;;17.40;64.30;;;;;;5002557;28;20037;-70
2023/07/02 05:09:33;;;;;;;15.17;5.67;;;17.10;66.70;;;;;;4982354;28;20567;-70
2023/07/02 05:11:59;;;;;;;16.57;5.43;;;16.70;67.50;;;;;;4989979;28;20087;-70
2023/07/02 05:14:24;;;;;;;17.53;6.13;;;16.30;68.40;;;;;;5006760;28;20499;-70
2023/07/02 05:16:50;;;;;;;18.90;6.07;;;16.00;69.60;;;;;;5006617;28;20099;-70
2023/07/02 05:19:16;;;;;;;13.43;5.57;;;15.70;71.00;;;;;;5006010;28;20053;-70
2023/07/02 05:21:42;;;;;;;19.83;5.70;;;15.40;71.80;;;;;;4989467;28;20522;-69
2023/07/02 05:24:08;;;;;;;19.27;5.40;;;15.30;72.90;;;;;;5007162;28;20121;-70
2023/07/02 05:26:35;;;;;;;19.10;5.93;;;15.20;73.20;;;;;;5005680;28;20403;-69
2023/07/02 05:29:01;;;;;;;20.83;6.03;;;15.20;73.80;;;;;;5006425;28;20300;-70
2023/07/02 05:31:27;;;;;;;17.03;5.80;;;15.80;73.30;;;;;;5004861;28;20332;-70
2023/07/02 05:33:53;;;;;;;17.67;6.03;;;16.50;70.90;;;;;;5005928;28;20336;-70
2023/07/02 05:36:20;;;;;;;17.37;5.63;;;17.20;69.30;;;;;;5006831;28;20610;-70
2023/07/02 05:38:45;;;;;;;19.13;6.30;;;17.80;67.10;;;;;;4989665;28;20300;-70
2023/07/02 05:41:17;;;;;;;20.20;5.83;;;18.40;65.90;;;;;;5004907;28;20293;-70
2023/07/02 05:43:43;;;;;;;15.73;4.93;;;19.00;63.40;;;;;;5005743;28;20042;-70
2023/07/02 05:46:08;;;;;;;15.40;5.67;;;19.50;61.00;;;;;;5005847;28;20295;-70
2023/07/02 05:48:34;;;;;;;15.80;5.40;;;19.80;59.50;;;;;;5006471;28;20049;-70
2023/07/02 05:50:59;;;;;;;14.13;5.30;;;20.00;58.90;;;;;;5005643;28;20046;-70
2023/07/02 05:53:25;;;;;;;16.50;5.87;;;20.10;58.90;;;;;;4991443;28;20140;-70
2023/07/02 05:55:51;;;;;;;17.37;5.77;;;19.30;59.10;;;;;;5005877;28;20045;-70
2023/07/02 05:58:17;;;;;;;16.07;4.87;;;18.40;60.70;;;;;;5006889;28;20129;-70
2023/07/02 06:00:48;;;;;;;12.03;5.13;;;17.70;62.70;;;;;;5006927;28;20045;-70
2023/07/02 06:03:20;;;;;;;14.70;5.00;;;17.50;63.70;;;;;;4999622;28;20489;-70
2023/07/02 06:05:48;;;;;;;16.07;5.40;;;17.80;63.80;;;;;;5006467;28;20284;-70
2023/07/02 06:08:14;;;;;;;13.30;4.50;;;18.30;62.10;;;;;;5006526;28;20390;-70
2023/07/02 06:10:40;;;;;;;13.57;4.23;;;18.90;61.30;;;;;;4995626;28;20287;-70
2023/07/02 06:13:06;;;;;;;16.37;5.20;;;19.10;59.80;;;;;;5004200;28;20284;-70
2023/07/02 06:15:31;;;;;;;17.03;4.37;;;19.40;58.60;;;;;;5005988;28;20037;-70
2023/07/02 06:17:57;;;;;;;13.17;3.97;;;19.60;58.90;;;;;;5005771;28;20048;-70
2023/07/02 06:20:23;;;;;;;14.63;4.37;;;19.80;57.60;;;;;;4986658;28;20056;-70
2023/07/02 06:22:48;;;;;;;18.40;4.03;;;20.00;58.30;;;;;;4989025;28;20595;-70
2023/07/02 06:25:14;;;;;;;11.23;3.23;;;19.90;57.50;;;;;;4988703;28;20034;-70
2023/07/02 06:27:40;;;;;;;17.60;4.57;;;19.80;56.70;;;;;;5005585;28;20099;-70
2023/07/02 06:30:06;;;;;;;9.03;2.77;;;19.50;58.20;;;;;;5004051;28;20545;-70
2023/07/02 06:32:32;;;;;;;14.07;3.97;;;19.60;57.80;;;;;;5007687;28;20069;-70
2023/07/02 06:34:58;;;;;;;14.73;3.30;;;19.70;56.20;;;;;;5011511;28;20296;-70
2023/07/02 06:37:23;;;;;;;15.43;3.23;;;19.80;57.10;;;;;;5010463;28;20100;-70
2023/07/02 06:39:49;;;;;;;12.20;4.20;;;19.90;56.90;;;;;;5008761;28;20072;-70
2023/07/02 06:42:15;;;;;;;13.53;3.40;;;20.20;55.60;;;;;;5007721;28;20462;-70
2023/07/02 06:44:41;;;;;;;11.97;3.60;;;20.40;55.80;;;;;;5003721;28;20046;-70
2023/07/02 06:47:07;;;;;;;12.87;3.27;;;20.60;54.50;;;;;;5009460;28;20045;-70
2023/07/02 06:49:33;;;;;;;12.73;3.37;;;20.50;54.80;;;;;;5005214;28;20292;-70
2023/07/02 06:52:00;;;;;;;11.20;3.73;;;20.30;54.80;;;;;;5008193;28;20049;-70
2023/07/02 06:54:26;;;;;;;11.40;3.00;;;20.10;54.20;;;;;;5009039;28;20289;-70
2023/07/02 06:56:51;;;;;;;15.37;3.40;;;20.00;55.50;;;;;;5009155;28;20285;-70
2023/07/02 06:59:22;;;;;;;11.60;3.47;;;19.90;56.50;;;;;;5008920;28;20137;-70
2023/07/02 07:01:47;;;;;;;11.33;3.43;;;19.80;56.30;;;;;;4987256;28;20045;-70
2023/07/02 07:04:13;;;;;;;9.23;3.17;;;19.60;56.50;;;;;;5008841;28;20312;-70
2023/07/02 07:06:39;;;;;;;13.70;3.80;;;19.00;57.00;;;;;;4992531;28;20037;-70
2023/07/02 07:09:04;;;;;;;11.53;3.20;;;18.60;59.30;;;;;;4994420;28;20032;-70
2023/07/02 07:11:30;;;;;;;12.93;3.80;;;18.60;60.20;;;;;;5009030;28;20030;-70
2023/07/02 07:13:56;;;;;;;14.40;3.83;;;18.70;59.50;;;;;;4993243;28;20087;-70
2023/07/02 07:16:22;;;;;;;14.30;3.50;;;18.60;60.00;;;;;;4992439;28;20045;-70
2023/07/02 07:18:48;;;;;;;10.03;3.23;;;18.60;60.20;;;;;;5009193;28;20046;-70
2023/07/02 07:21:14;;;;;;;10.03;3.27;;;18.60;61.80;;;;;;5008483;28;20379;-70
2023/07/02 07:23:40;;;;;;;9.20;2.87;;;18.70;60.00;;;;;;5008383;28;20904;-70
2023/07/02 07:26:06;;;;;;;13.80;3.00;;;18.60;57.80;;;;;;5008310;28;20044;-70
2023/07/02 07:28:32;;;;;;;13.90;3.20;;;18.20;58.40;;;;;;4989910;28;20281;-70
2023/07/02 07:30:58;;;;;;;14.33;4.40;;;17.80;59.70;;;;;;5010547;28;20285;-70
2023/07/02 07:33:24;;;;;;;13.30;3.77;;;17.40;61.30;;;;;;5008503;28;20636;-70
2023/07/02 07:35:49;;;;;;;17.37;4.50;;;17.20;63.00;;;;;;5010448;28;20048;-72
2023/07/02 07:38:16;;;;;;;13.90;4.20;;;17.30;64.70;;;;;;4990906;28;20079;-70
2023/07/02 07:40:43;;;;;;;12.87;4.23;;;17.40;64.40;;;;;;4993168;28;20042;-70
2023/07/02 07:43:09;;;;;;;15.97;5.03;;;17.50;64.50;;;;;;4992082;28;20376;-71
2023/07/02 07:45:34;;;;;;;12.97;3.73;;;17.70;64.60;;;;;;5004816;28;20288;-71
2023/07/02 07:48:01;;;;;;;11.37;3.90;;;18.10;63.50;;;;;;5012219;28;20322;-71
2023/07/02 07:50:26;;;;;;;10.07;3.40;;;18.30;62.40;;;;;;5011139;28;20038;-70
2023/07/02 07:52:52;;;;;;;13.60;4.03;;;18.30;60.70;;;;;;5011755;28;20878;-71
2023/07/02 07:55:18;;;;;;;15.07;4.50;;;18.10;62.30;;;;;;5011124;28;20180;-70
2023/07/02 07:57:44;;;;;;;10.87;4.00;;;17.90;63.40;;;;;;5009329;28;20503;-69
2023/07/02 08:00:10;;;;;;;9.87;3.90;;;17.80;64.70;;;;;;5011286;28;20038;-70
2023/07/02 08:02:36;;;;;;;14.63;4.57;;;18.00;65.30;;;;;;5003946;28;20046;-71
2023/07/02 08:05:05;;;;;;;15.97;3.93;;;18.20;63.80;;;;;;5008253;28;20366;-70
2023/07/02 08:07:32;;;;;;;12.80;3.70;;;18.30;64.00;;;;;;5007593;28;20117;-71
2023/07/02 08:09:58;;;;;;;17.47;3.80;;;18.30;63.60;;;;;;5006136;28;20288;-70
2023/07/02 08:12:26;;;;;;;12.70;3.87;;;18.30;63.10;;;;;;5009895;28;20769;-70
2023/07/02 08:14:52;;;;;;;14.97;3.30;;;18.40;61.70;;;;;;4993309;28;20290;-70
2023/07/02 08:17:18;;;;;;;11.40;3.57;;;18.50;61.60;;;;;;5006013;28;20319;-69
2023/07/02 08:19:43;;;;;;;10.80;3.40;;;18.70;60.30;;;;;;5002676;28;20397;-70
2023/07/02 08:22:09;;;;;;;9.80;3.30;;;18.90;60.50;;;;;;5006091;28;20045;-71
2023/07/02 08:24:35;;;;;;;13.53;3.30;;;19.10;59.00;;;;;;5005270;28;20097;-71
2023/07/02 08:27:03;;;;;;;11.77;3.60;;;19.40;58.60;;;;;;4990531;28;20034;-71
2023/07/02 08:29:30;;;;;;;10.47;2.93;;;19.40;57.40;;;;;;4990195;28;20065;-70
2023/07/02 08:31:56;;;;;;;11.97;3.03;;;19.30;58.70;;;;;;4990533;28;20289;-70
2023/07/02 08:34:22;;;;;;;14.03;4.30;;;18.80;58.90;;;;;;5009526;28;20523;-70
2023/07/02 08:36:48;;;;;;;15.07;3.60;;;18.40;60.90;;;;;;5002328;28;20345;-70
2023/07/02 08:39:15;;;;;;;11.00;3.30;;;18.30;62.10;;;;;;4990450;28;20044;-71
2023/07/02 08:41:48;;;;;;;14.60;4.30;;;18.20;63.60;;;;;;5000572;28;20042;-70
2023/07/02 08:44:15;;;;;;;16.10;3.77;;;18.10;64.30;;;;;;4989260;28;20157;-70
2023/07/02 08:46:42;;;;;;;10.60;3.20;;;18.10;65.00;;;;;;5004476;28;20301;-70
2023/07/02 08:49:08;;;;;;;12.47;4.10;;;18.20;64.30;;;;;;4986212;28;20656;-71
2023/07/02 08:51:34;;;;;;;9.33;2.63;;;18.30;61.90;;;;;;4998164;28;20677;-70
2023/07/02 08:54:01;;;;;;;9.23;2.77;;;18.10;61.90;;;;;;5009889;28;20372;-70
2023/07/02 08:56:27;;;;;;;14.13;3.23;;;18.00;62.70;;;;;;4988388;28;20726;-70
2023/07/02 08:58:53;;;;;;;11.13;2.63;;;17.80;62.50;;;;;;5006557;28;20280;-70
2023/07/02 09:01:19;;;;;;;8.33;2.67;;;17.70;62.10;;;;;;5005273;28;20100;-70
2023/07/02 09:03:45;;;;;;;9.23;2.63;;;17.70;62.60;;;;;;5003910;28;20056;-70
2023/07/02 09:06:12;;;;;;;14.20;3.37;;;18.00;63.40;;;;;;4978415;28;20135;-70
2023/07/02 09:08:38;;;;;;;12.43;3.60;;;18.50;63.00;;;;;;4979876;28;20289;-71
2023/07/02 09:11:09;;;;;;;12.33;3.60;;;18.80;60.50;;;;;;4996340;28;20363;-70
2023/07/02 09:13:46;;;;;;;10.43;3.80;;;18.90;60.20;;;;;;4998391;28;20104;-69
2023/07/02 09:16:22;;;;;;;10.70;3.63;;;19.00;59.80;;;;;;5006493;28;20312;-70
2023/07/02 09:19:08;;;;;;;14.77;3.77;;;18.90;59.20;;;;;;4984111;28;20897;-70
2023/07/02 09:21:46;;;;;;;12.37;3.30;;;18.60;59.80;;;;;;5002148;28;20296;-70
2023/07/02 09:24:20;;;;;;;14.17;3.37;;;18.40;61.90;;;;;;5000183;28;20305;-70
2023/07/02 09:26:50;;;;;;;13.60;3.97;;;18.70;62.30;;;;;;4998952;28;20284;-70
2023/07/02 09:29:31;;;;;;;14.27;3.40;;;19.10;61.30;;;;;;4999177;28;20280;-68
2023/07/02 09:32:04;;;;;;;15.73;4.07;;;19.20;61.10;;;;;;4999083;28;20284;-68
2023/07/02 09:34:31;;;;;;;13.83;3.70;;;19.20;61.60;;;;;;4997721;28;20065;-68
2023/07/02 09:36:58;;;;;;;16.70;3.83;;;19.30;61.20;;;;;;4997564;28;20461;-68
2023/07/02 09:39:32;;;;;;;12.60;3.67;;;19.50;60.80;;;;;;5003543;28;20478;-68
2023/07/02 09:42:00;;;;;;;11.07;3.75;;;19.50;57.80;;;;;;4985790;28;20033;-70
2023/07/02 09:44:33;;;;;;;12.80;4.10;;;19.30;58.10;;;;;;4983755;28;20042;-68
2023/07/02 09:47:08;;;;;;;12.00;3.20;;;19.10;58.40;;;;;;5002291;28;20048;-68
2023/07/02 09:49:34;;;;;;;;;;;19.00;58.70;;;;;;5004097;28;20029;-68
2023/07/02 09:52:10;;;;;;;11.10;3.67;;;19.10;57.60;;;;;;4986769;28;19995;-68
2023/07/02 09:54:38;;;;;;;14.37;3.97;;;19.10;58.10;;;;;;4986891;28;20482;-68
2023/07/02 09:57:06;;;;;;;10.93;3.23;;;19.00;59.00;;;;;;4982154;28;20046;-68
2023/07/02 09:59:32;;;;;;;13.40;3.50;;;18.80;59.40;;;;;;5001346;28;21006;-68
2023/07/02 10:01:58;;;;;;;9.30;3.53;;;18.70;60.00;;;;;;4987589;28;20049;-69
2023/07/02 10:04:24;;;;;;;13.17;4.40;;;18.80;60.70;;;;;;5001498;28;20148;-69
2023/07/02 10:06:54;;;;;;;13.17;3.63;;;18.80;61.10;;;;;;4999619;28;20030;-69
2023/07/02 10:09:21;;;;;;;15.33;3.83;;;18.80;60.00;;;;;;5000305;28;20037;-69
2023/07/02 10:11:47;;;;;;;14.90;4.17;;;18.60;60.30;;;;;;4992507;28;20069;-69
2023/07/02 10:14:13;;;;;;;13.20;3.67;;;18.40;61.50;;;;;;4981301;28;20792;-69
2023/07/02 10:16:50;;;;;;;10.77;3.27;;;18.40;62.50;;;;;;4995499;28;20038;-69
2023/07/02 10:19:16;;;;;;;10.63;3.00;;;18.60;61.00;;;;;;4994222;28;20486;-68
2023/07/02 10:21:42;;;;;;;11.87;3.70;;;18.70;59.90;;;;;;5001188;28;20299;-68
2023/07/02 10:24:11;;;;;;;13.60;3.10;;;18.70;60.90;;;;;;4999257;28;20050;-69
2023/07/02 10:26:37;;;;;;;13.93;3.43;;;18.60;60.50;;;;;;4996965;28;20048;-68
2023/07/02 10:29:03;;;;;;;10.43;2.73;;;18.50;61.10;;;;;;4997209;28;20412;-68
2023/07/02 10:31:29;;;;;;;7.03;2.73;;;18.60;61.70;;;;;;4980413;28;20512;-68
2023/07/02 10:33:55;;;;;;;8.67;2.37;;;18.90;61.00;;;;;;4976528;28;20088;-69
2023/07/02 10:36:23;;;;;;;13.30;2.87;;;19.10;58.00;;;;;;4994206;28;20056;-69
2023/07/02 10:38:49;;;;;;;11.07;2.93;;;19.20;58.50;;;;;;4981479;28;20518;-69
2023/07/02 10:41:29;;;;;;;9.97;3.00;;;19.30;58.10;;;;;;4980756;28;20037;-68
2023/07/02 10:44:05;;;;;;;13.97;3.13;;;19.20;59.50;;;;;;4992139;28;20062;-69
2023/07/02 10:46:31;;;;;;;9.17;2.83;;;19.10;59.10;;;;;;4985795;28;20100;-69
2023/07/02 10:48:57;;;;;;;17.40;3.23;;;19.00;59.80;;;;;;4995088;28;20067;-69
2023/07/02 10:51:23;;;;;;;11.37;3.23;;;18.80;60.30;;;;;;4986016;28;20038;-69
2023/07/02 10:54:04;;;;;;;16.17;3.20;;;18.60;61.50;;;;;;4994471;28;20285;-69
2023/07/02 10:56:31;;;;;;;13.57;2.97;;;18.40;61.30;;;;;;4995777;28;20281;-69
2023/07/02 10:58:57;;;;;;;8.53;3.13;;;18.30;61.70;;;;;;4994930;28;20049;-69
2023/07/02 11:01:27;;;;;;;8.47;2.73;;;18.30;61.10;;;;;;4991392;28;20323;-69
2023/07/02 11:04:11;;;;;;;8.40;2.30;;;18.40;61.50;;;;;;4989627;28;20041;-69
2023/07/02 11:06:38;;;;;;;6.87;2.57;;;18.50;59.30;;;;;;5000260;28;20277;-70
2023/07/02 11:09:03;;;;;;;10.57;2.60;;;18.70;60.30;;;;;;5000047;28;20305;-70
2023/07/02 11:11:29;;;;;;;12.30;2.80;;;18.80;60.30;;;;;;4987780;28;20369;-70
2023/07/02 11:13:55;;;;;;;10.37;2.50;;;18.80;60.40;;;;;;4983402;28;20044;-70
2023/07/02 11:16:29;;;;;;;10.77;2.67;;;18.70;60.10;;;;;;5004972;28;20125;-70
2023/07/02 11:19:09;;;;;;;7.57;2.40;;;18.70;60.10;;;;;;4989635;28;20034;-70
2023/07/02 11:21:37;;;;;;;8.00;1.77;;;18.70;59.30;;;;;;5010274;28;20041;-70
2023/07/02 11:24:10;;;;;;;10.67;2.57;;;18.70;59.10;;;;;;5005350;28;20297;-70
2023/07/02 11:26:40;;;;;;;8.93;2.50;;;19.00;58.10;;;;;;4987790;28;20072;-70
2023/07/02 11:29:12;;;;;;;6.27;2.10;;;19.20;57.70;;;;;;5003934;28;20080;-70
2023/07/02 11:31:38;;;;;;;9.43;2.30;;;19.50;56.20;;;;;;4999483;28;20295;-69
2023/07/02 11:34:14;;;;;;;9.77;2.77;;;19.70;55.30;;;;;;5001115;28;20296;-70
2023/07/02 11:36:40;;;;;;;9.57;2.80;;;19.70;55.60;;;;;;5000797;28;20791;-70
2023/07/02 11:39:06;;;;;;;8.43;3.07;;;19.60;55.30;;;;;;4986241;28;20045;-70
2023/07/02 11:41:39;;;;;;;8.47;2.40;;;19.60;56.10;;;;;;5002286;28;20104;-70
2023/07/02 11:44:06;;;;;;;8.50;2.50;;;19.50;55.50;;;;;;5000200;28;20050;-71
2023/07/02 11:46:32;;;;;;;8.53;2.67;;;19.50;56.80;;;;;;5004830;28;20046;-70
2023/07/02 11:48:57;;;;;;;9.83;2.63;;;19.80;56.70;;;;;;5009044;28;20046;-70
2023/07/02 11:51:23;;;;;;;10.23;3.00;;;19.80;54.30;;;;;;4996365;28;20048;-70
2023/07/02 11:53:49;;;;;;;7.10;2.77;;;19.70;55.50;;;;;;5005056;28;20528;-70
2023/07/02 11:56:14;;;;;;;12.20;3.57;;;19.70;54.90;;;;;;5007918;28;20052;-70
2023/07/02 11:58:42;;;;;;;11.67;3.37;;;19.70;56.70;;;;;;4993196;28;20042;-72
2023/07/02 12:01:08;;;;;;;9.50;3.10;;;19.70;55.00;;;;;;5007068;28;20509;-71
2023/07/02 12:03:33;;;;;;;11.80;3.10;;;19.80;54.00;;;;;;5007192;28;20398;-70
2023/07/02 12:05:59;;;;;;;10.20;3.53;;;19.70;54.20;;;;;;5005908;28;20046;-70
2023/07/02 12:08:25;;;;;;;14.33;3.77;;;19.60;54.90;;;;;;5004814;28;20045;-72
2023/07/02 12:10:51;;;;;;;13.57;3.97;;;19.70;56.20;;;;;;4988318;28;20038;-70
2023/07/02 12:13:17;;;;;;;12.40;3.60;;;19.70;56.20;;;;;;4998492;28;20088;-70
2023/07/02 12:15:43;;;;;;;14.30;3.97;;;19.70;57.00;;;;;;5006384;28;20409;-71
2023/07/02 12:18:09;;;;;;;12.97;4.53;;;19.50;57.60;;;;;;5002320;28;20034;-69
2023/07/02 12:20:36;;;;;;;16.13;4.70;;;19.10;59.00;;;;;;5001612;28;20042;-70
2023/07/02 12:23:02;;;;;;;12.87;4.80;;;18.90;60.30;;;;;;5007726;28;20482;-70
2023/07/02 12:25:27;;;;;;;11.97;5.07;;;18.90;60.10;;;;;;5003664;28;20134;-70
2023/07/02 12:27:53;;;;;;;12.87;4.70;;;18.90;60.10;;;;;;5003494;28;20042;-70
2023/07/02 12:30:19;;;;;;;13.53;4.43;;;18.90;61.30;;;;;;5001761;28;20517;-71
2023/07/02 12:32:45;;;;;;;12.30;4.67;;;18.90;62.20;;;;;;5004599;28;20049;-70
2023/07/02 12:35:11;;;;;;;17.73;4.90;;;19.00;61.80;;;;;;5002134;28;20068;-71
2023/07/02 12:37:52;;;;;;;12.67;4.70;;;19.00;62.60;;;;;;4988442;28;20065;-71